Time;durP1;ratioP1;P1;durP2;ratioP2;P2;SDS_P1;SDS_P2;PMS_P1;PMS_P2;Temp;Humidity;BMP_temperature;BMP_pressure;BME280_temperature;BME280_humidity;BME280_pressure;Samples;Min_cycle;Max_cycle;Signal;HPM_P1;HPM_P2
2021/09/26 00:00:27;;;;;;;13.07;6.93;;;;;;;;;;5016073;28;20042;-79
2021/09/26 00:02:53;;;;;;;9.35;7.55;;;;;;;;;;5016572;28;20590;-80
2021/09/26 00:05:19;;;;;;;11.30;6.70;;;;;;;;;;5016429;28;20050;-79
2021/09/26 00:07:45;;;;;;;9.23;6.88;;;;;;;;;;5016285;28;20110;-79
2021/09/26 00:10:11;;;;;;;8.63;6.75;;;;;;;;;;5009762;28;20079;-79
2021/09/26 00:12:37;;;;;;;7.50;6.53;;;;;;;;;;5015845;28;20038;-79
2021/09/26 00:15:05;;;;;;;9.10;6.93;;;;;;;;;;5021383;28;20029;-78
2021/09/26 00:17:31;;;;;;;10.27;6.97;;;;;;;;;;5019645;28;20030;-78
2021/09/26 00:19:57;;;;;;;10.40;6.85;;;;;;;;;;5016765;28;20036;-79
2021/09/26 00:22:23;;;;;;;10.30;7.90;;;18.30;99.90;;;;;;5016695;28;20022;-79
2021/09/26 00:24:49;;;;;;;9.98;6.70;;;17.80;99.90;;;;;;5016801;28;20018;-78
2021/09/26 00:27:15;;;;;;;8.35;7.15;;;16.80;99.90;;;;;;5002161;28;20029;-79
2021/09/26 00:29:41;;;;;;;9.07;7.45;;;17.70;99.90;;;;;;5017035;28;20486;-79
2021/09/26 00:32:07;;;;;;;12.05;6.13;;;18.00;99.90;;;;;;5016307;28;20025;-79
2021/09/26 00:34:33;;;;;;;8.10;6.70;;;17.60;99.90;;;;;;5016095;28;20026;-80
2021/09/26 00:36:59;;;;;;;8.98;7.10;;;17.80;99.90;;;;;;5016428;28;20433;-79
2021/09/26 00:39:25;;;;;;;9.73;7.20;;;16.70;99.90;;;;;;5007453;28;20030;-78
2021/09/26 00:41:51;;;;;;;12.32;7.32;;;19.70;99.90;;;;;;5033104;28;20014;-78
2021/09/26 00:44:18;;;;;;;10.10;7.25;;;17.60;99.90;;;;;;5032006;28;20030;-78
2021/09/26 00:46:45;;;;;;;10.23;7.20;;;16.50;99.90;;;;;;5015282;28;20026;-78
2021/09/26 00:49:11;;;;;;;10.05;7.32;;;17.50;99.90;;;;;;5004063;28;20022;-79
2021/09/26 00:51:37;;;;;;;8.75;7.70;;;;;;;;;;5016557;28;20101;-79
2021/09/26 00:54:05;;;;;;;9.98;7.95;;;;;;;;;;5016282;28;20723;-79
2021/09/26 00:56:31;;;;;;;11.20;8.00;;;;;;;;;;5015260;28;20038;-79
2021/09/26 00:58:58;;;;;;;12.15;7.45;;;;;;;;;;5017972;28;20574;-79
2021/09/26 01:01:24;;;;;;;9.75;7.13;;;;;;;;;;5028117;28;20021;-78
2021/09/26 01:03:56;;;;;;;9.57;7.20;;;;;;;;;;5027449;28;20037;-78
2021/09/26 01:06:58;;;;;;;10.68;7.65;;;;;;;;;;5025899;28;20094;-79
2021/09/26 01:09:43;;;;;;;10.55;7.97;;;;;;;;;;5014774;28;20129;-79
2021/09/26 01:12:21;;;;;;;11.65;7.45;;;;;;;;;;4999261;28;20030;-79
2021/09/26 01:14:51;;;;;;;10.23;7.28;;;;;;;;;;5015372;28;20080;-78
2021/09/26 01:17:17;;;;;;;10.48;7.95;;;;;;;;;;4999193;28;20076;-79
2021/09/26 01:20:03;;;;;;;12.50;8.13;;;;;;;;;;5005914;28;20045;-79
2021/09/26 01:22:42;;;;;;;12.60;7.90;;;;;;;;;;4995078;28;20112;-79
2021/09/26 01:25:27;;;;;;;9.82;8.25;;;;;;;;;;5009140;28;20714;-79
2021/09/26 01:28:29;;;;;;;12.52;7.95;;;;;;;;;;5009013;28;20030;-79
2021/09/26 01:31:18;;;;;;;8.45;7.55;;;;;;;;;;5021499;28;20026;-80
2021/09/26 01:33:48;;;;;;;16.60;7.53;;;;;;;;;;5004732;28;20499;-79
2021/09/26 01:36:22;;;;;;;13.07;8.10;;;;;;;;;;5016110;28;20496;-79
2021/09/26 01:39:07;;;;;;;8.90;7.40;;;;;;;;;;5014145;28;20030;-79
2021/09/26 01:41:50;;;;;;;11.93;7.63;;;;;;;;;;5017556;28;20041;-79
2021/09/26 01:44:34;;;;;;;12.25;8.32;;;;;;;;;;5018897;28;20156;-79
2021/09/26 01:47:06;;;;;;;10.00;8.25;;;;;;;;;;4998466;28;20034;-78
2021/09/26 01:49:53;;;;;;;10.68;8.38;;;;;;;;;;5016225;28;20030;-79
2021/09/26 01:52:24;;;;;;;14.93;8.50;;;;;;;;;;4998299;28;20034;-78
2021/09/26 01:54:51;;;;;;;10.50;8.32;;;;;;;;;;5007209;28;20121;-79
2021/09/26 01:57:20;;;;;;;11.57;7.90;;;;;;;;;;5015277;28;20054;-79
2021/09/26 01:59:52;;;;;;;11.32;8.38;;;;;;;;;;5014026;28;20078;-79
2021/09/26 02:02:30;;;;;;;12.57;9.00;;;;;;;;;;5001305;28;20041;-78
2021/09/26 02:04:59;;;;;;;11.10;7.78;;;;;;;;;;5016018;28;20030;-79
2021/09/26 02:07:27;;;;;;;10.82;8.45;;;;;;;;;;4998997;28;20022;-79
2021/09/26 02:09:53;;;;;;;10.90;8.48;;;;;;;;;;5005557;28;20450;-79
2021/09/26 02:12:20;;;;;;;14.35;8.45;;;;;;;;;;5003779;28;20053;-78
2021/09/26 02:14:47;;;;;;;10.68;7.85;;;;;;;;;;4998219;28;20060;-79
2021/09/26 02:17:14;;;;;;;10.82;8.70;;;;;;;;;;5019319;28;20037;-78
2021/09/26 02:19:41;;;;;;;9.80;7.28;;;;;;;;;;4992377;28;20097;-78
2021/09/26 02:22:08;;;;;;;11.38;7.50;;;;;;;;;;5016022;28;20876;-79
2021/09/26 02:24:39;;;;;;;8.75;7.85;;;;;;;;;;4989608;28;20049;-79
2021/09/26 02:27:06;;;;;;;9.68;7.97;;;;;;;;;;5015124;28;20022;-78
2021/09/26 02:29:33;;;;;;;11.32;8.23;;;;;;;;;;4998383;28;20034;-79
2021/09/26 02:31:59;;;;;;;10.23;7.95;;;;;;;;;;5018202;28;20087;-79
2021/09/26 02:34:46;;;;;;;11.60;8.15;;;;;;;;;;5002069;28;20030;-78
2021/09/26 02:37:12;;;;;;;10.23;7.90;;;;;;;;;;5018245;28;20470;-79
2021/09/26 02:39:39;;;;;;;9.45;7.75;;;;;;;;;;5019401;28;20029;-79
2021/09/26 02:42:22;;;;;;;11.00;8.05;;;;;;;;;;5020015;28;20034;-79
2021/09/26 02:44:52;;;;;;;11.77;8.98;;;;;;;;;;5025121;28;20238;-79
2021/09/26 02:47:20;;;;;;;11.07;8.43;;;;;;;;;;5024169;28;20030;-79
2021/09/26 02:49:47;;;;;;;10.45;7.82;;;;;;;;;;5009687;28;20025;-78
2021/09/26 02:52:13;;;;;;;11.55;7.70;;;;;;;;;;5008848;28;20034;-77
2021/09/26 02:54:43;;;;;;;12.38;8.88;;;;;;;;;;5011022;28;20033;-77
2021/09/26 02:57:10;;;;;;;12.70;7.70;;;;;;;;;;5017096;28;20107;-78
2021/09/26 02:59:37;;;;;;;11.15;8.15;;;;;;;;;;5002241;28;20037;-78
2021/09/26 03:02:06;;;;;;;11.60;8.85;;;;;;;;;;5014302;28;20034;-78
2021/09/26 03:04:34;;;;;;;11.50;8.95;;;;;;;;;;5016940;28;20053;-78
2021/09/26 03:07:02;;;;;;;13.63;7.75;;;;;;;;;;5025648;22;20074;-78
2021/09/26 03:09:28;;;;;;;13.02;7.72;;;;;;;;;;5004939;28;20049;-79
2021/09/26 03:11:54;;;;;;;13.35;7.85;;;;;;;;;;4999305;28;20038;-79
2021/09/26 03:14:20;;;;;;;10.40;8.25;;;;;;;;;;4992785;28;20022;-79
2021/09/26 03:16:46;;;;;;;9.63;7.53;;;;;;;;;;4998352;28;20080;-79
2021/09/26 03:19:12;;;;;;;12.77;8.25;;;;;;;;;;5017818;28;20080;-79
2021/09/26 03:21:38;;;;;;;12.15;8.00;;;;;;;;;;5029324;28;20029;-79
2021/09/26 03:24:04;;;;;;;9.50;8.05;;;;;;;;;;5016774;28;20593;-79
2021/09/26 03:26:30;;;;;;;9.20;7.70;;;;;;;;;;5001719;28;20041;-79
2021/09/26 03:28:56;;;;;;;12.60;8.20;;;;;;;;;;5001504;28;20034;-79
2021/09/26 03:31:23;;;;;;;9.70;8.02;;;;;;;;;;5014839;28;20053;-79
2021/09/26 03:33:49;;;;;;;8.90;7.53;;;;;;;;;;5019883;28;20033;-79
2021/09/26 03:36:15;;;;;;;12.50;8.15;;;;;;;;;;5001136;28;20061;-79
2021/09/26 03:38:41;;;;;;;10.75;7.03;;;;;;;;;;5000979;28;20038;-79
2021/09/26 03:41:07;;;;;;;10.65;7.40;;;;;;;;;;5000725;28;20041;-79
2021/09/26 03:43:33;;;;;;;10.10;7.38;;;;;;;;;;5001582;28;20058;-79
2021/09/26 03:45:59;;;;;;;10.70;8.45;;;;;;;;;;5021051;28;20065;-79
2021/09/26 03:48:25;;;;;;;19.30;8.60;;;;;;;;;;5002852;28;20041;-79
2021/09/26 03:50:52;;;;;;;14.27;7.45;;;;;;;;;;4999939;28;20034;-79
2021/09/26 03:53:18;;;;;;;10.55;7.65;;;;;;;;;;5001913;28;20069;-79
2021/09/26 03:55:44;;;;;;;11.77;8.13;;;;;;;;;;4999929;28;20031;-79
2021/09/26 03:58:10;;;;;;;11.30;7.82;;;;;;;;;;4999781;28;20406;-79
2021/09/26 04:00:36;;;;;;;11.90;8.20;;;;;;;;;;4998832;28;20378;-79
2021/09/26 04:03:02;;;;;;;10.07;8.57;;;;;;;;;;5000043;28;20037;-79
2021/09/26 04:05:28;;;;;;;9.43;7.80;;;;;;;;;;5002036;28;20073;-79
2021/09/26 04:07:54;;;;;;;12.88;8.75;;;;;;;;;;5000534;28;20491;-79
2021/09/26 04:10:20;;;;;;;12.23;8.57;;;;;;;;;;4999772;28;20053;-79
2021/09/26 04:12:46;;;;;;;9.65;8.02;;;;;;;;;;5001073;28;20037;-79
2021/09/26 04:15:13;;;;;;;12.48;8.82;;;;;;;;;;5000895;28;20042;-79
2021/09/26 04:17:40;;;;;;;13.00;9.05;;;;;;;;;;5000870;28;20037;-79
2021/09/26 04:20:08;;;;;;;13.82;7.90;;;;;;;;;;5000750;28;20039;-79
2021/09/26 04:22:34;;;;;;;10.88;8.15;;;;;;;;;;5001281;28;20451;-79
2021/09/26 04:25:01;;;;;;;11.75;8.23;;;;;;;;;;5001660;28;20030;-79
2021/09/26 04:27:27;;;;;;;11.02;8.32;;;;;;;;;;5014554;28;20045;-79
2021/09/26 04:29:54;;;;;;;10.80;8.07;;;;;;;;;;5017425;28;20041;-79
2021/09/26 04:32:20;;;;;;;11.50;8.15;;;;;;;;;;5021069;28;20041;-79
2021/09/26 04:34:46;;;;;;;11.32;8.00;;;;;;;;;;5017072;28;20109;-79
2021/09/26 04:37:12;;;;;;;9.80;7.60;;;;;;;;;;5001804;28;20052;-79
2021/09/26 04:39:38;;;;;;;11.15;7.43;;;;;;;;;;5002420;28;20272;-79
2021/09/26 04:42:06;;;;;;;13.07;8.57;;;;;;;;;;5001449;28;20034;-79
2021/09/26 04:44:33;;;;;;;10.50;8.32;;;;;;;;;;4996119;28;20384;-79
2021/09/26 04:46:59;;;;;;;13.30;8.30;;;;;;;;;;5001331;28;20068;-79
2021/09/26 04:49:28;;;;;;;11.65;7.90;;;;;;;;;;5000492;28;20019;-79
2021/09/26 04:51:58;;;;;;;11.10;8.27;;;;;;;;;;5003407;28;20026;-79
2021/09/26 04:54:24;;;;;;;12.50;8.48;;;;;;;;;;5011103;28;20046;-79
2021/09/26 04:56:50;;;;;;;12.95;8.07;;;;;;;;;;5029850;28;20092;-79
2021/09/26 04:59:17;;;;;;;13.93;8.32;;;;;;;;;;5029795;28;20033;-79
2021/09/26 05:01:43;;;;;;;11.38;8.20;;;;;;;;;;5031710;28;20018;-79
2021/09/26 05:04:09;;;;;;;10.25;7.53;;;;;;;;;;5026314;28;20049;-79
2021/09/26 05:06:35;;;;;;;14.93;8.45;;;;;;;;;;5011901;28;20034;-79
2021/09/26 05:09:01;;;;;;;13.07;7.30;;;;;;;;;;5010122;28;20065;-79
2021/09/26 05:11:27;;;;;;;9.63;7.57;;;;;;;;;;5012252;28;20069;-79
2021/09/26 05:13:53;;;;;;;13.75;7.57;;;;;;;;;;5015335;28;19998;-78
2021/09/26 05:16:19;;;;;;;10.90;7.32;;;;;;;;;;5027269;28;20045;-79
2021/09/26 05:18:45;;;;;;;9.65;7.68;;;;;;;;;;5026084;28;20039;-79
2021/09/26 05:21:11;;;;;;;12.07;6.90;;;;;;;;;;5024554;28;20022;-79
2021/09/26 05:23:38;;;;;;;8.98;7.20;;;;;;;;;;5022740;28;20050;-79
2021/09/26 05:26:04;;;;;;;8.75;7.25;;;;;;;;;;5016887;28;20165;-79
2021/09/26 05:28:30;;;;;;;12.00;7.70;;;;;;;;;;4997999;28;20025;-79
2021/09/26 05:30:56;;;;;;;9.98;7.70;;;;;;;;;;4997277;28;20467;-79
2021/09/26 05:33:25;;;;;;;10.48;7.38;;;;;;;;;;4997806;28;20045;-79
2021/09/26 05:35:51;;;;;;;11.20;7.88;;;;;;;;;;5016788;28;20026;-79
2021/09/26 05:38:16;;;;;;;11.85;8.43;;;;;;;;;;5016182;28;20041;-79
2021/09/26 05:40:43;;;;;;;12.50;8.60;;;;;;;;;;5017387;28;20061;-79
2021/09/26 05:43:09;;;;;;;12.57;8.45;;;;;;;;;;5014670;28;20108;-79
2021/09/26 05:45:35;;;;;;;12.45;7.47;;;;;;;;;;4998622;28;20069;-79
2021/09/26 05:48:00;;;;;;;13.38;7.75;;;;;;;;;;4997321;28;20042;-79
2021/09/26 05:50:26;;;;;;;9.93;7.72;;;;;;;;;;5002233;28;20082;-79
2021/09/26 05:52:52;;;;;;;10.80;8.20;;;;;;;;;;5015815;28;20133;-79
2021/09/26 05:55:19;;;;;;;14.43;7.57;;;;;;;;;;5005952;28;20045;-79
2021/09/26 05:57:45;;;;;;;11.65;7.85;;;;;;;;;;5018016;28;20049;-79
2021/09/26 06:00:11;;;;;;;9.15;7.47;;;;;;;;;;5014392;28;20117;-78
2021/09/26 06:02:37;;;;;;;9.57;7.82;;;;;;;;;;5012854;28;20022;-78
2021/09/26 06:05:07;;;;;;;10.70;7.65;;;;;;;;;;5001425;28;20173;-78
2021/09/26 06:07:33;;;;;;;9.75;8.10;;;;;;;;;;4997100;28;20027;-78
2021/09/26 06:10:00;;;;;;;9.20;7.25;;;;;;;;;;4995745;28;20050;-78
2021/09/26 06:12:26;;;;;;;10.77;7.43;;;;;;;;;;4998151;28;20030;-78
2021/09/26 06:14:52;;;;;;;10.40;7.10;;;;;;;;;;5014524;28;20038;-78
2021/09/26 06:17:18;;;;;;;10.68;6.68;;;;;;;;;;5025479;28;20053;-78
2021/09/26 06:19:44;;;;;;;8.65;7.20;;;;;;;;;;5017669;28;20177;-78
2021/09/26 06:22:10;;;;;;;11.80;6.82;;;;;;;;;;5016581;28;20040;-78
2021/09/26 06:24:36;;;;;;;8.35;6.10;;;;;;;;;;5012807;28;20048;-78
2021/09/26 06:27:02;;;;;;;9.85;6.63;;;;;;;;;;4994946;28;20042;-78
2021/09/26 06:29:28;;;;;;;9.63;5.80;;;;;;;;;;4996462;28;20026;-78
2021/09/26 06:31:54;;;;;;;11.77;6.60;;;;;;;;;;4997221;28;20033;-78
2021/09/26 06:34:20;;;;;;;8.20;6.60;;;;;;;;;;4997207;28;20010;-83
2021/09/26 06:36:46;;;;;;;7.20;5.20;;;;;;;;;;4997674;28;20030;-78
2021/09/26 06:39:12;;;;;;;8.75;5.32;;;;;;;;;;4996305;28;20030;-78
2021/09/26 06:41:39;;;;;;;11.63;6.05;;;;;;;;;;4998108;28;20076;-79
2021/09/26 06:44:05;;;;;;;9.68;5.68;;;;;;;;;;5001473;28;20546;-79
2021/09/26 06:46:31;;;;;;;10.18;5.82;;;;;;;;;;5001469;28;20022;-78
2021/09/26 06:48:57;;;;;;;7.78;5.93;;;;;;;;;;5017253;28;20018;-78
2021/09/26 06:51:23;;;;;;;8.45;5.43;;;;;;;;;;5017741;28;20679;-78
2021/09/26 06:53:49;;;;;;;10.00;5.10;;;;;;;;;;5014277;28;20049;-78
2021/09/26 06:56:15;;;;;;;10.02;5.50;;;;;;;;;;4998465;28;20034;-79
2021/09/26 06:58:41;;;;;;;7.22;5.30;;;;;;;;;;4998139;28;20406;-79
2021/09/26 07:01:08;;;;;;;8.80;6.15;;;;;;;;;;4997925;28;20085;-79
2021/09/26 07:03:34;;;;;;;9.32;5.00;;;;;;;;;;4999241;28;20054;-79
2021/09/26 07:06:00;;;;;;;8.13;5.82;;;;;;;;;;4999563;28;20041;-79
2021/09/26 07:08:26;;;;;;;9.70;5.60;;;;;;;;;;5000945;28;20038;-79
2021/09/26 07:10:52;;;;;;;10.20;5.03;;;;;;;;;;5021720;28;20026;-79
2021/09/26 07:13:18;;;;;;;8.32;4.70;;;;;;;;;;5016230;28;20030;-79
2021/09/26 07:15:44;;;;;;;8.68;5.25;;;;;;;;;;5016257;28;20048;-79
2021/09/26 07:18:10;;;;;;;9.70;5.18;;;;;;;;;;5010966;28;20053;-79
2021/09/26 07:20:36;;;;;;;6.50;4.40;;;;;;;;;;5000664;28;20038;-79
2021/09/26 07:23:03;;;;;;;7.72;4.63;;;;;;;;;;5009796;28;20041;-79
2021/09/26 07:25:29;;;;;;;7.35;4.70;;;;;;;;;;5014909;28;20142;-79
2021/09/26 07:27:56;;;;;;;8.25;4.82;;;;;;;;;;5016064;28;20109;-79
2021/09/26 07:30:22;;;;;;;8.25;4.65;;;;;;;;;;5002888;28;20022;-79
2021/09/26 07:32:49;;;;;;;6.75;4.38;;;;;;;;;;5006619;28;20040;-79
2021/09/26 07:35:15;;;;;;;8.15;4.38;;;;;;;;;;5021300;28;20037;-79
2021/09/26 07:37:41;;;;;;;7.35;5.00;;;;;;;;;;5015423;28;20023;-79
2021/09/26 07:40:07;;;;;;;7.55;4.75;;;;;;;;;;5001986;28;20038;-79
2021/09/26 07:42:33;;;;;;;6.78;4.63;;;;;;;;;;5017263;28;20022;-79
2021/09/26 07:45:03;;;;;;;8.70;4.38;;;;;;;;;;4995282;28;20041;-79
2021/09/26 07:47:30;;;;;;;6.18;4.15;;;;;;;;;;5002718;28;20026;-79
2021/09/26 07:49:56;;;;;;;8.45;4.28;;;;;;;;;;5021356;28;20745;-79
2021/09/26 07:52:23;;;;;;;7.00;4.30;;;17.30;99.90;;;;;;5014696;28;20030;-79
2021/09/26 07:54:48;;;;;;;8.57;4.25;;;18.80;99.90;;;;;;4997717;28;20038;-79
2021/09/26 07:57:15;;;;;;;6.93;3.92;;;18.90;99.90;;;;;;4997115;28;20694;-79
2021/09/26 07:59:42;;;;;;;8.15;4.28;;;19.00;99.90;;;;;;5017913;28;20050;-79
2021/09/26 08:02:07;;;;;;;7.70;4.20;;;19.30;99.90;;;;;;5018611;28;20168;-80
2021/09/26 08:04:34;;;;;;;12.38;4.40;;;19.60;99.90;;;;;;4994727;28;20061;-80
2021/09/26 08:07:00;;;;;;;12.50;5.63;;;19.90;99.90;;;;;;4997944;28;20041;-82
2021/09/26 08:09:25;;;;;;;10.98;4.10;;;20.20;99.90;;;;;;5016809;28;20030;-81
2021/09/26 08:11:51;;;;;;;9.25;3.85;;;20.20;99.90;;;;;;5019025;28;20081;-80
2021/09/26 08:14:17;;;;;;;7.45;3.88;;;20.30;99.90;;;;;;4997892;28;20037;-80
2021/09/26 08:16:42;;;;;;;6.90;3.95;;;20.60;99.90;;;;;;4999400;28;20030;-81
2021/09/26 08:19:08;;;;;;;7.82;3.92;;;21.40;99.90;;;;;;4997207;28;20031;-82
2021/09/26 08:21:34;;;;;;;6.80;3.97;;;;;;;;;;5000074;28;20553;-81
2021/09/26 08:24:00;;;;;;;6.57;3.67;;;;;;;;;;5013884;28;20033;-79
2021/09/26 08:26:26;;;;;;;7.38;3.75;;;21.20;99.90;;;;;;5019148;28;20052;-81
2021/09/26 08:28:52;;;;;;;6.45;3.15;;;21.80;99.90;;;;;;4997067;28;20022;-81
2021/09/26 08:31:18;;;;;;;6.30;3.67;;;21.60;99.90;;;;;;4999042;28;20061;-81
2021/09/26 08:33:43;;;;;;;6.18;3.60;;;21.50;99.90;;;;;;5010004;28;20064;-80
2021/09/26 08:36:09;;;;;;;7.65;4.25;;;21.40;99.90;;;;;;4998600;28;20498;-81
2021/09/26 08:38:35;;;;;;;9.05;3.95;;;21.10;99.90;;;;;;4999654;28;20064;-82
2021/09/26 08:41:01;;;;;;;5.80;3.45;;;20.90;99.90;;;;;;4997251;28;20034;-80
2021/09/26 08:43:27;;;;;;;10.63;3.78;;;20.90;99.90;;;;;;4997944;28;20041;-81
2021/09/26 08:45:52;;;;;;;11.35;4.95;;;20.90;99.90;;;;;;4998978;28;20858;-80
2021/09/26 08:48:19;;;;;;;6.93;3.70;;;21.10;99.90;;;;;;5007829;28;20494;-79
2021/09/26 08:50:45;;;;;;;6.47;4.30;;;21.10;99.90;;;;;;5016892;28;20511;-80
2021/09/26 08:53:11;;;;;;;5.22;3.78;;;21.20;99.90;;;;;;5009012;28;20060;-80
2021/09/26 08:55:37;;;;;;;6.57;3.95;;;21.40;99.90;;;;;;5000630;28;20049;-81
2021/09/26 08:58:03;;;;;;;10.02;3.90;;;21.10;99.90;;;;;;5006190;28;20050;-80
2021/09/26 09:00:28;;;;;;;8.55;4.00;;;21.10;99.90;;;;;;4997469;28;20053;-80
2021/09/26 09:02:54;;;;;;;6.55;3.58;;;21.10;99.90;;;;;;5007435;28;20023;-79
2021/09/26 09:05:35;;;;;;;5.50;3.53;;;21.00;99.90;;;;;;4998374;28;20041;-80
2021/09/26 09:08:14;;;;;;;9.88;3.42;;;21.00;99.90;;;;;;5004817;28;20498;-80
2021/09/26 09:10:49;;;;;;;7.30;3.47;;;21.00;99.90;;;;;;5015097;28;20429;-80
2021/09/26 09:13:26;;;;;;;7.00;4.03;;;20.70;99.90;;;;;;5004170;28;20094;-79
2021/09/26 09:15:54;;;;;;;6.57;3.55;;;20.80;99.90;;;;;;4994866;28;20649;-81
2021/09/26 09:18:21;;;;;;;7.72;3.50;;;20.80;99.90;;;;;;5003780;28;20037;-79
2021/09/26 09:20:47;;;;;;;7.30;3.58;;;20.90;99.90;;;;;;5005033;28;20026;-79
2021/09/26 09:23:17;;;;;;;5.82;3.45;;;21.00;99.90;;;;;;5004714;28;20026;-79
2021/09/26 09:25:58;;;;;;;9.68;4.00;;;20.90;99.90;;;;;;5014265;28;20050;-80
2021/09/26 09:28:27;;;;;;;7.45;3.90;;;20.80;99.90;;;;;;4992764;28;20034;-80
2021/09/26 09:30:55;;;;;;;5.95;3.88;;;20.70;99.90;;;;;;4993059;28;20034;-79
2021/09/26 09:33:22;;;;;;;6.18;3.50;;;21.00;99.90;;;;;;5005629;28;20053;-79
2021/09/26 09:35:53;;;;;;;7.78;3.70;;;20.90;99.90;;;;;;5003425;28;20035;-80
2021/09/26 09:38:36;;;;;;;5.97;3.63;;;21.00;99.90;;;;;;5004515;28;20490;-79
2021/09/26 09:41:02;;;;;;;7.72;3.50;;;21.20;99.90;;;;;;5012960;28;20469;-80
2021/09/26 09:43:29;;;;;;;8.15;3.67;;;21.30;99.90;;;;;;5001267;28;20037;-79
2021/09/26 09:45:55;;;;;;;6.45;3.53;;;21.40;99.90;;;;;;4995945;28;20668;-79
2021/09/26 09:48:24;;;;;;;8.02;3.60;;;21.60;99.90;;;;;;5004197;28;20025;-80
2021/09/26 09:50:55;;;;;;;8.70;4.13;;;21.80;99.90;;;;;;4994268;28;20027;-79
2021/09/26 09:53:32;;;;;;;8.13;3.35;;;21.80;99.90;;;;;;5005476;28;20038;-80
2021/09/26 09:56:05;;;;;;;8.75;3.60;;;21.80;99.90;;;;;;4998321;28;20033;-80
2021/09/26 09:58:35;;;;;;;7.13;3.95;;;21.70;99.90;;;;;;5008424;28;20061;-80
2021/09/26 10:01:03;;;;;;;5.63;3.60;;;22.10;99.90;;;;;;5000072;28;20085;-79
2021/09/26 10:03:34;;;;;;;13.48;5.90;;;21.50;99.90;;;;;;5005367;28;20402;-78
2021/09/26 10:06:02;;;;;;;8.20;4.18;;;21.40;99.90;;;;;;5016116;28;20028;-79
2021/09/26 10:08:32;;;;;;;8.63;4.85;;;21.50;99.90;;;;;;5016042;28;20410;-79
2021/09/26 10:11:08;;;;;;;8.48;4.78;;;21.40;99.90;;;;;;5012572;28;20429;-80
2021/09/26 10:13:38;;;;;;;8.20;4.80;;;21.40;99.90;;;;;;5006470;28;20053;-79
2021/09/26 10:16:05;;;;;;;5.10;3.83;;;21.60;99.90;;;;;;4994636;28;20117;-80
2021/09/26 10:18:32;;;;;;;11.68;4.60;;;21.50;99.90;;;;;;4993940;28;20026;-79
2021/09/26 10:20:59;;;;;;;7.65;4.40;;;21.60;99.90;;;;;;4993008;28;20395;-79
2021/09/26 10:23:25;;;;;;;7.32;4.05;;;22.50;99.90;;;;;;5004897;28;20498;-78
2021/09/26 10:25:52;;;;;;;7.55;4.30;;;;;;;;;;5015858;28;20090;-78
2021/09/26 10:28:18;;;;;;;7.80;3.90;;;22.20;99.90;;;;;;5020802;28;20108;-78
2021/09/26 10:30:45;;;;;;;6.88;4.05;;;;;;;;;;5031415;28;20278;-79
2021/09/26 10:33:14;;;;;;;9.38;4.30;;;;;;;;;;5022430;28;20022;-79
2021/09/26 10:35:40;;;;;;;6.70;3.70;;;;;;;;;;5004714;28;20072;-78
2021/09/26 10:38:11;;;;;;;5.75;3.60;;;23.70;99.90;;;;;;5007205;28;20046;-79
2021/09/26 10:40:40;;;;;;;6.72;3.95;;;25.40;99.90;;;;;;4994757;28;20548;-79
2021/09/26 10:43:20;;;;;;;6.75;4.07;;;;;;;;;;4993426;28;20030;-80
2021/09/26 10:45:47;;;;;;;6.45;3.75;;;25.80;99.90;;;;;;4994374;28;20030;-79
2021/09/26 10:48:13;;;;;;;13.90;4.40;;;27.80;99.90;;;;;;5003847;28;20030;-79
2021/09/26 10:50:40;;;;;;;8.75;3.60;;;;;;;;;;5014399;28;20722;-80
2021/09/26 10:53:14;;;;;;;7.25;3.90;;;28.10;99.90;;;;;;5008970;28;20037;-79
2021/09/26 10:55:42;;;;;;;5.68;3.67;;;29.40;97.50;;;;;;4999519;28;20062;-79
2021/09/26 10:58:07;;;;;;;7.15;4.10;;;30.10;96.20;;;;;;5009566;28;20037;-80
2021/09/26 11:00:35;;;;;;;6.03;3.85;;;;;;;;;;5005465;28;20030;-79
2021/09/26 11:03:07;;;;;;;6.65;3.95;;;;;;;;;;5014056;28;20038;-79
2021/09/26 11:05:43;;;;;;;8.05;4.15;;;;;;;;;;5004681;28;20082;-79
2021/09/26 11:08:11;;;;;;;6.07;3.85;;;;;;;;;;5006702;28;20131;-79
2021/09/26 11:10:48;;;;;;;7.38;3.53;;;;;;;;;;5015802;28;20558;-80
2021/09/26 11:13:14;;;;;;;7.45;3.92;;;;;;;;;;5006445;28;20033;-79
2021/09/26 11:15:59;;;;;;;6.63;4.53;;;;;;;;;;4998090;28;20022;-79
2021/09/26 11:18:43;;;;;;;6.30;3.90;;;;;;;;;;5007207;28;20368;-80
2021/09/26 11:21:09;;;;;;;8.02;3.92;;;;;;;;;;5018087;28;20025;-80
2021/09/26 11:23:36;;;;;;;8.05;3.67;;;;;;;;;;5015709;28;20089;-79
2021/09/26 11:26:06;;;;;;;7.57;3.80;;;;;;;;;;5016424;28;20030;-79
2021/09/26 11:28:35;;;;;;;7.28;3.40;;;;;;;;;;5004966;28;20030;-79
2021/09/26 11:31:02;;;;;;;7.07;3.53;;;;;;;;;;4996636;28;20499;-79
2021/09/26 11:33:48;;;;;;;6.68;4.03;;;;;;;;;;5007729;28;20159;-79
2021/09/26 11:36:19;;;;;;;5.78;3.65;;;;;;;;;;5015723;28;20041;-79
2021/09/26 11:38:45;;;;;;;8.43;4.97;;;;;;;;;;5003538;28;20034;-80
2021/09/26 11:41:11;;;;;;;5.13;3.53;;;;;;;;;;4996341;28;20491;-80
2021/09/26 11:43:39;;;;;;;6.22;3.58;;;;;;;;;;4992327;28;20034;-80
2021/09/26 11:46:22;;;;;;;6.53;3.80;;;;;;;;;;4996142;28;20118;-80
2021/09/26 11:48:48;;;;;;;7.80;3.92;;;;;;;;;;5009035;28;20105;-80
2021/09/26 11:51:15;;;;;;;8.43;3.70;;;;;;;;;;5015749;28;20554;-80
2021/09/26 11:53:42;;;;;;;8.85;4.13;;;;;;;;;;5013684;28;20030;-80
2021/09/26 11:56:21;;;;;;;6.75;3.95;;;30.60;94.40;;;;;;5016278;28;20030;-80
2021/09/26 11:58:50;;;;;;;7.85;4.20;;;29.50;85.10;;;;;;5007347;28;20392;-80
2021/09/26 12:01:28;;;;;;;10.38;4.70;;;28.60;86.50;;;;;;5000445;28;20052;-80
2021/09/26 12:04:09;;;;;;;8.32;4.07;;;28.20;90.00;;;;;;5015094;28;20026;-80
2021/09/26 12:06:36;;;;;;;9.68;4.40;;;27.90;90.40;;;;;;5007172;28;20030;-81
2021/09/26 12:09:03;;;;;;;10.70;4.55;;;;;;;;;;5008869;28;20034;-80
2021/09/26 12:11:29;;;;;;;8.25;4.57;;;;;;;;;;5003138;28;20022;-81
2021/09/26 12:13:56;;;;;;;6.57;4.75;;;;;;;;;;5005456;28;20034;-80
2021/09/26 12:16:24;;;;;;;8.15;4.45;;;;;;;;;;4996545;28;20030;-80
2021/09/26 12:18:51;;;;;;;6.47;4.13;;;;;;;;;;5010607;28;20038;-81
2021/09/26 12:21:17;;;;;;;4.57;4.07;;;;;;;;;;5013996;28;20088;-80
2021/09/26 12:23:45;;;;;;;7.30;5.07;;;;;;;;;;5001786;28;20069;-80
2021/09/26 12:26:11;;;;;;;5.32;4.40;;;;;;;;;;4992968;28;20153;-79
2021/09/26 12:28:40;;;;;;;7.57;4.95;;;27.80;90.60;;;;;;5001178;28;20034;-78
2021/09/26 12:31:06;;;;;;;8.15;5.10;;;27.30;91.90;;;;;;5009013;28;20033;-78
2021/09/26 12:33:45;;;;;;;8.38;4.90;;;26.90;93.50;;;;;;4996883;28;20032;-78
2021/09/26 12:36:14;;;;;;;8.75;5.03;;;27.10;93.80;;;;;;4989356;28;20054;-76
2021/09/26 12:38:53;;;;;;;7.65;4.43;;;27.40;93.30;;;;;;5000356;28;20037;-78
2021/09/26 12:41:18;;;;;;;8.13;6.13;;;27.60;93.30;;;;;;5008706;28;20030;-78
2021/09/26 12:44:11;;;;;;;9.75;5.30;;;27.80;93.50;;;;;;4998295;28;20039;-78
2021/09/26 12:46:43;;;;;;;7.57;5.07;;;27.30;93.40;;;;;;4988336;28;20033;-77
2021/09/26 12:49:15;;;;;;;8.48;5.10;;;26.20;95.10;;;;;;4977707;28;20521;-78
2021/09/26 12:51:54;;;;;;;7.97;5.10;;;25.20;98.10;;;;;;5006273;28;20045;-77
2021/09/26 12:54:41;;;;;;;9.02;5.93;;;24.50;99.90;;;;;;4992710;28;20281;-77
2021/09/26 12:57:13;;;;;;;10.43;7.00;;;23.30;99.90;;;;;;5009151;28;20049;-78
2021/09/26 12:59:41;;;;;;;19.10;8.25;;;22.10;99.90;;;;;;4973000;28;20033;-80
2021/09/26 13:02:13;;;;;;;16.40;9.43;;;21.20;99.90;;;;;;4975536;28;20106;-79
2021/09/26 13:04:42;;;;;;;16.27;10.63;;;20.80;99.90;;;;;;4999361;28;20109;-78
2021/09/26 13:07:07;;;;;;;15.45;10.35;;;20.50;99.90;;;;;;5012617;28;20486;-79
2021/09/26 13:09:38;;;;;;;12.38;9.88;;;20.50;99.90;;;;;;5012816;28;20037;-80
2021/09/26 13:12:28;;;;;;;13.88;10.05;;;20.40;99.90;;;;;;5006331;28;20719;-79
2021/09/26 13:15:21;;;;;;;15.20;10.90;;;20.30;99.90;;;;;;4990154;28;20030;-82
2021/09/26 13:17:51;;;;;;;16.30;11.23;;;20.10;99.90;;;;;;4998307;28;20024;-80
2021/09/26 13:20:32;;;;;;;17.98;11.35;;;20.10;99.90;;;;;;5013213;28;20045;-80
2021/09/26 13:23:23;;;;;;;15.32;12.05;;;20.10;99.90;;;;;;5007889;28;20121;-79
2021/09/26 13:25:49;;;;;;;19.35;12.25;;;;;;;;;;4999227;28;20038;-79
2021/09/26 13:28:18;;;;;;;20.08;13.38;;;;;;;;;;5014197;28;20045;-80
2021/09/26 13:30:44;;;;;;;26.67;14.35;;;;;;;;;;4985889;28;20041;-80
2021/09/26 13:33:22;;;;;;;23.25;16.67;;;;;;;;;;5010353;28;20391;-79
2021/09/26 13:35:48;;;;;;;26.63;17.20;;;;;;;;;;4981866;28;20050;-81
2021/09/26 13:38:14;;;;;;;25.25;16.85;;;;;;;;;;5000998;28;20032;-80
2021/09/26 13:40:43;;;;;;;23.73;17.23;;;;;;;;;;4992496;28;20034;-80
2021/09/26 13:43:25;;;;;;;23.90;18.58;;;;;;;;;;4996416;28;20383;-80
2021/09/26 13:45:51;;;;;;;23.00;18.45;;;;;;;;;;4991123;28;20031;-79
2021/09/26 13:48:17;;;;;;;26.65;19.15;;;;;;;;;;4999968;28;20113;-80
2021/09/26 13:50:43;;;;;;;26.67;18.00;;;;;;;;;;5010378;28;20081;-80
2021/09/26 13:53:16;;;;;;;24.20;18.20;;;;;;;;;;5002215;28;20042;-80
2021/09/26 13:55:43;;;;;;;23.58;17.05;;;;;;;;;;4995939;28;20039;-80
2021/09/26 13:58:09;;;;;;;21.08;17.02;;;;;;;;;;4998705;28;20036;-78
2021/09/26 14:00:35;;;;;;;22.02;16.27;;;;;;;;;;4993638;28;20148;-78
2021/09/26 14:03:01;;;;;;;21.55;14.95;;;;;;;;;;4998482;28;20026;-79
2021/09/26 14:05:28;;;;;;;18.90;14.27;;;;;;;;;;5011413;28;20040;-78